• Join FlightAware (Why Join?)
  • Login
  • US Flag 
10:21AM EDT


 

Airport Tracker/Info


-or-


 

Live Flight TrackerFlight Track Log ✈ N87ER ✈ 02-Mar-2014 ✈ KUTA - KMBT

Flight Track Log - Related Links

Times and Time Zones

All times are in EST time to prevent confusion due to time zone crossing. See the N87ER flight status page for this flight to view local times or setup timezone preferences in your user account.

Time Position Orientation Groundspeed Altitude Reporting Facility
EST Latitude Longitude Course Direction KTS MPH feet Rate Location/Type
04:41AM 34.7167 -90.1833 68° East 147 169 3,700  Level KMEM
04:42AM 34.7333 -90.1333 68° East 141 162 4,300 600 Climbing KMEM
04:43AM 34.7500 -90.1000 59° Northeast 141 162 5,000 600 Climbing KMEM
04:44AM 34.7667 -90.0500 68° East 143 165 5,500 600 Climbing KMEM
04:45AM 34.7833 -90.0000 68° East 139 160 6,300 600 Climbing KMEM
04:46AM 34.8000 -89.9500 68° East 137 158 6,800 420 Climbing KMEM
04:47AM 34.8014 -89.9222 87° East 177 204 7,100 120 Climbing Memphis Center
04:48AM 34.8172 -89.8728 69° East 158 182 7,100  Level Memphis Center
04:49AM 34.8372 -89.8158 67° East 170 196 7,100  Level Memphis Center
04:50AM 34.8556 -89.7567 69° East 180 207 7,100 -60 Level Memphis Center
04:51AM 34.8744 -89.6961 69° East 185 213 7,000 -60 Descending Memphis Center
04:52AM 34.8942 -89.6361 68° East 185 213 7,000  Level Memphis Center
04:53AM 34.9117 -89.5728 71° East 190 219 7,100  Climbing Memphis Center
04:54AM 34.9339 -89.5161 64° Northeast 190 219 7,000  Descending Memphis Center
04:55AM 34.9600 -89.4614 60° Northeast 190 219 7,100  Climbing Memphis Center
04:56AM 34.9736 -89.4014 75° East 188 216 7,100  Level Memphis Center
04:57AM 34.9908 -89.3414 71° East 189 217 7,100 -60 Level Memphis Center
04:58AM 35.0069 -89.2811 72° East 188 216 7,000 -60 Descending Memphis Center
04:59AM 35.0250 -89.2222 69° East 187 215 7,000  Level Memphis Center
05:00AM 35.0436 -89.1653 68° East 186 214 7,000  Level Memphis Center
05:01AM 35.0611 -89.1050 70° East 185 213 7,000  Level Memphis Center
05:02AM 35.0781 -89.0475 70° East 184 212 7,000  Level Memphis Center
05:03AM 35.0975 -88.9900 68° East 184 212 7,000  Level Memphis Center
05:04AM 35.1150 -88.9339 69° East 183 211 7,000  Level Memphis Center
05:05AM 35.1317 -88.8736 71° East 183 211 7,000  Level Memphis Center
05:06AM 35.1478 -88.8197 70° East 181 208 7,000  Level Memphis Center
05:07AM 35.1658 -88.7617 69° East 181 208 7,000 -60 Level Memphis Center
05:08AM 35.1844 -88.7061 68° East 181 208 6,900  Descending Memphis Center
05:09AM 35.1992 -88.6489 73° East 180 207 7,000  Climbing Memphis Center
05:10AM 35.2167 -88.5928 69° East 179 206 7,000  Level Memphis Center
05:11AM 35.2317 -88.5331 73° East 179 206 7,000  Level Memphis Center
05:12AM 35.2483 -88.4744 71° East 179 206 7,000  Level Memphis Center
05:13AM 35.2650 -88.4183 70° East 179 206 7,000  Level Memphis Center
05:14AM 35.2897 -88.3633 61° Northeast 183 211 7,000  Level Memphis Center
05:15AM 35.3100 -88.3081 66° East 182 209 7,000  Level Memphis Center
05:16AM 35.3269 -88.2508 70° East 182 209 7,000  Level Memphis Center
05:17AM 35.3442 -88.1911 71° East 182 209 7,000  Level Memphis Center
05:18AM 35.3592 -88.1336 72° East 182 209 7,000  Level Memphis Center
05:19AM 35.3750 -88.0750 72° East 182 209 7,000  Level Memphis Center
05:20AM 35.3914 -88.0167 71° East 182 209 7,000  Level Memphis Center
05:21AM 35.4081 -87.9647 68° East 181 208 7,000  Level Memphis Center
05:22AM 35.4261 -87.9081 69° East 181 208 7,000  Level Memphis Center
05:23AM 35.4436 -87.8497 70° East 181 208 7,000  Level Memphis Center
05:24AM 35.4608 -87.7933 69° East 180 207 7,000  Level Memphis Center
05:25AM 35.4778 -87.7344 71° East 180 207 7,000  Level Memphis Center
05:26AM 35.4975 -87.6786 67° East 180 207 7,000  Level Memphis Center
05:27AM 35.5169 -87.6217 67° East 180 207 7,000  Level Memphis Center
05:28AM 35.5342 -87.5642 70° East 180 207 7,000  Level Memphis Center
05:29AM 35.5517 -87.5072 69° East 179 206 7,000  Level Memphis Center
05:30AM 35.5678 -87.4489 71° East 179 206 7,000  Level Memphis Center
05:31AM 35.5850 -87.3914 70° East 178 205 7,000  Level Memphis Center
05:32AM 35.6025 -87.3325 70° East 178 205 7,000  Level Memphis Center
05:33AM 35.6189 -87.2744 71° East 178 205 7,000  Level Memphis Center
05:34AM 35.6361 -87.2158 70° East 178 205 7,000  Level Memphis Center
05:35AM 35.6533 -87.1564 70° East 179 206 7,000  Level Memphis Center
05:36AM 35.6700 -87.0986 70° East 179 206 7,000  Level Memphis Center
05:37AM 35.6875 -87.0389 70° East 180 207 7,000  Level Memphis Center
05:38AM 35.7044 -86.9817 70° East 180 207 7,000 -240 Level Memphis Center
05:39AM 35.7219 -86.9206 71° East 181 208 6,600 -480 Descending Memphis Center
05:40AM 35.7403 -86.8556 71° East 193 222 6,100 -540 Descending Memphis Center
05:41AM 35.7597 -86.7892 70° East 200 230 5,600 -600 Descending Memphis Center
05:42AM 35.7786 -86.7219 71° East 202 232 4,900 -660 Descending Memphis Center
05:43AM 35.7983 -86.6500 71° East 214 246 4,300 -540 Descending Memphis Center
05:44AM 35.8139 -86.5950 71° East 212 244 3,900 -420 Descending Memphis Center
05:45AM 35.8350 -86.5253 70° East 211 243 3,500 -420 Descending Memphis Center